createdAt,value
2022-11-05T00:01:10.455Z,97.32
2022-11-05T00:03:36.993Z,97.19
2022-11-05T00:06:03.819Z,97.28
2022-11-05T00:08:30.511Z,97.48
2022-11-05T00:10:57.160Z,97.45
2022-11-05T00:13:25.199Z,97.50
2022-11-05T00:15:52.007Z,97.97
2022-11-05T00:18:18.803Z,97.71
2022-11-05T00:20:45.346Z,97.13
2022-11-05T00:23:12.197Z,97.50
2022-11-05T00:25:38.960Z,97.55
2022-11-05T00:28:05.514Z,97.46
2022-11-05T00:30:33.395Z,97.36
2022-11-05T00:33:01.897Z,97.63
2022-11-05T00:35:28.437Z,97.73
2022-11-05T00:37:54.973Z,97.68
2022-11-05T00:40:21.527Z,97.83
2022-11-05T00:42:48.108Z,97.65
2022-11-05T00:45:14.771Z,97.81
2022-11-05T00:47:42.737Z,98.02
2022-11-05T00:50:09.247Z,97.79
2022-11-05T00:52:35.815Z,98.09
2022-11-05T00:55:02.393Z,98.19
2022-11-05T00:57:28.917Z,98.05
2022-11-05T00:59:55.413Z,98.22
2022-11-05T01:02:22.140Z,98.48
2022-11-05T01:04:50.120Z,98.39
2022-11-05T01:07:16.639Z,98.30
2022-11-05T01:09:43.165Z,98.31
2022-11-05T01:12:09.703Z,98.26
2022-11-05T01:14:36.254Z,98.32
2022-11-05T01:17:02.830Z,98.37
2022-11-05T01:19:29.584Z,98.17
2022-11-05T01:21:57.479Z,98.29
2022-11-05T01:24:24.019Z,98.37
2022-11-05T01:26:50.580Z,98.07
2022-11-05T01:29:17.117Z,98.05
2022-11-05T01:31:43.631Z,98.09
2022-11-05T01:34:10.176Z,98.22
2022-11-05T01:36:36.735Z,98.14
2022-11-05T01:39:04.667Z,97.16
2022-11-05T01:41:31.227Z,96.60
2022-11-05T01:43:59.403Z,96.87
2022-11-05T01:46:29.292Z,97.16
2022-11-05T01:49:03.173Z,96.61
2022-11-05T01:51:30.859Z,97.08
2022-11-05T01:54:01.394Z,97.14
2022-11-05T01:56:32.034Z,97.10
2022-11-05T01:59:01.726Z,97.09
2022-11-05T02:01:28.359Z,97.32
2022-11-05T02:03:59.467Z,97.39
2022-11-05T02:06:30.142Z,97.56
2022-11-05T02:09:01.801Z,97.23
2022-11-05T02:11:29.797Z,96.77
2022-11-05T02:13:56.354Z,96.69
2022-11-05T02:16:36.601Z,97.11
2022-11-05T02:19:24.683Z,97.09
2022-11-05T02:22:28.804Z,97.07
2022-11-05T02:25:21.543Z,96.91
2022-11-05T02:28:11.678Z,96.91
2022-11-05T02:30:49.481Z,96.91
2022-11-05T02:33:31.022Z,96.81
2022-11-05T02:36:16.509Z,97.01
2022-11-05T02:38:53.096Z,96.84
2022-11-05T02:41:27.416Z,97.10
2022-11-05T02:44:06.061Z,97.10
2022-11-05T02:46:40.171Z,96.71
2022-11-05T02:49:18.445Z,96.67
2022-11-05T02:51:51.392Z,96.95
2022-11-05T02:54:23.143Z,96.52
2022-11-05T02:56:52.627Z,96.50
2022-11-05T02:59:19.226Z,95.84
2022-11-05T03:01:48.386Z,96.43
2022-11-05T03:04:19.265Z,96.57
2022-11-05T03:07:17.041Z,96.34
2022-11-05T03:10:13.963Z,95.62
2022-11-05T03:12:52.000Z,95.65
2022-11-05T03:15:30.177Z,95.63
2022-11-05T03:18:07.025Z,95.60
2022-11-05T03:20:37.611Z,96.01
2022-11-05T03:23:12.771Z,96.17
2022-11-05T03:25:47.362Z,96.29
2022-11-05T03:28:16.516Z,96.65
2022-11-05T03:30:44.932Z,96.93
2022-11-05T03:33:17.068Z,96.86
2022-11-05T03:35:47.922Z,96.88
2022-11-05T03:38:20.283Z,96.88
2022-11-05T03:40:49.540Z,96.40
2022-11-05T03:43:17.485Z,97.04
2022-11-05T03:45:47.653Z,96.88
2022-11-05T03:48:18.447Z,96.69
2022-11-05T03:50:52.831Z,96.59
2022-11-05T03:53:25.006Z,96.47
2022-11-05T03:55:59.255Z,96.76
2022-11-05T03:58:26.995Z,96.63
2022-11-05T04:00:53.799Z,96.60
2022-11-05T04:03:21.676Z,95.87
2022-11-05T04:05:48.659Z,96.02
2022-11-05T04:08:15.193Z,96.44
2022-11-05T04:10:43.519Z,96.40
2022-11-05T04:13:15.858Z,96.52
2022-11-05T04:15:42.410Z,96.83
2022-11-05T04:18:08.956Z,96.89
2022-11-05T04:20:36.907Z,97.16
2022-11-05T04:23:05.233Z,96.15
2022-11-05T04:25:31.819Z,95.96
2022-11-05T04:27:59.214Z,96.30
2022-11-05T04:30:26.568Z,97.02
2022-11-05T04:32:58.305Z,96.84
2022-11-05T04:35:25.904Z,96.86
2022-11-05T04:37:53.926Z,97.47
2022-11-05T04:40:20.520Z,97.40
2022-11-05T04:42:47.085Z,97.59
2022-11-05T04:45:13.755Z,97.58
2022-11-05T04:47:40.338Z,97.82
2022-11-05T04:50:07.273Z,97.43
2022-11-05T04:52:33.794Z,96.54
2022-11-05T04:55:01.693Z,96.06
2022-11-05T04:57:28.234Z,96.70
2022-11-05T04:59:54.910Z,96.89
2022-11-05T05:02:21.607Z,97.06
2022-11-05T05:04:48.219Z,97.50
2022-11-05T05:07:14.821Z,97.59
2022-11-05T05:09:41.403Z,97.47
2022-11-05T05:12:09.342Z,97.78
2022-11-05T05:14:36.147Z,97.88
2022-11-05T05:17:02.704Z,97.95
2022-11-05T05:19:29.259Z,97.76
2022-11-05T05:21:55.818Z,97.82
2022-11-05T05:24:22.416Z,97.79
2022-11-05T05:26:49.873Z,98.07
2022-11-05T05:29:18.150Z,97.82
2022-11-05T05:31:44.763Z,98.15
2022-11-05T05:34:12.949Z,98.15
2022-11-05T05:36:39.784Z,97.86
2022-11-05T05:39:07.713Z,97.71
2022-11-05T05:41:34.471Z,97.85
2022-11-05T05:44:01.025Z,97.99
2022-11-05T05:46:28.929Z,98.02
2022-11-05T05:48:55.487Z,98.20
2022-11-05T05:51:22.075Z,97.60
2022-11-05T05:53:48.614Z,97.63
2022-11-05T05:56:15.262Z,97.48
2022-11-05T05:58:41.897Z,97.66
2022-11-05T06:01:17.173Z,97.55
2022-11-05T06:03:47.141Z,97.03
2022-11-05T06:06:15.009Z,97.27
2022-11-05T06:08:42.172Z,97.47
2022-11-05T06:11:08.896Z,97.62
2022-11-05T06:13:36.140Z,97.68
2022-11-05T06:16:04.071Z,97.74
2022-11-05T06:18:31.397Z,97.87
2022-11-05T06:21:03.068Z,97.69
2022-11-05T06:23:30.569Z,97.85
2022-11-05T06:25:59.765Z,97.92
2022-11-05T06:28:26.495Z,97.64
2022-11-05T06:30:53.102Z,97.54
2022-11-05T06:33:19.655Z,97.43
2022-11-05T06:35:46.217Z,97.56
2022-11-05T06:38:14.262Z,97.31
2022-11-05T06:40:40.926Z,97.01
2022-11-05T06:43:07.465Z,96.97
2022-11-05T06:45:34.018Z,96.75
2022-11-05T06:48:00.718Z,96.25
2022-11-05T06:50:28.320Z,96.42
2022-11-05T06:52:55.623Z,96.13
2022-11-05T06:55:23.826Z,96.23
2022-11-05T06:57:50.486Z,96.28
2022-11-05T07:00:17.608Z,95.92
2022-11-05T07:02:44.193Z,95.90
2022-11-05T07:05:10.726Z,95.90
2022-11-05T07:07:37.290Z,95.66
2022-11-05T07:10:04.551Z,95.43
2022-11-05T07:12:32.633Z,94.93
2022-11-05T07:14:59.280Z,95.17
2022-11-05T07:17:26.040Z,95.13
2022-11-05T07:19:52.572Z,94.38
2022-11-05T07:22:19.149Z,94.38
2022-11-05T07:24:45.729Z,93.57
2022-11-05T07:27:12.285Z,93.56
2022-11-05T07:29:40.214Z,93.35
2022-11-05T07:32:06.852Z,93.02
2022-11-05T07:34:33.588Z,92.44
2022-11-05T07:37:00.154Z,92.70
2022-11-05T07:39:26.663Z,91.66
2022-11-05T07:41:53.271Z,91.94
2022-11-05T07:44:19.835Z,92.17
2022-11-05T07:46:47.749Z,92.72
2022-11-05T07:49:23.601Z,92.22
2022-11-05T07:51:50.222Z,92.71
2022-11-05T07:54:16.764Z,93.48
2022-11-05T07:56:43.377Z,94.24
2022-11-05T07:59:09.945Z,94.41
2022-11-05T08:01:36.700Z,94.78
2022-11-05T08:04:04.888Z,94.85
2022-11-05T08:06:31.616Z,95.07
2022-11-05T08:08:58.217Z,94.93
2022-11-05T08:11:24.849Z,95.47
2022-11-05T08:13:51.388Z,95.38
2022-11-05T08:16:17.948Z,95.70
2022-11-05T08:18:44.493Z,95.51
2022-11-05T08:21:12.403Z,95.53
2022-11-05T08:23:38.913Z,94.90
2022-11-05T08:26:05.754Z,95.09
2022-11-05T08:28:32.323Z,94.10
2022-11-05T08:30:59.063Z,94.14
2022-11-05T08:33:26.409Z,93.60
2022-11-05T08:35:53.066Z,93.31
2022-11-05T08:38:21.033Z,92.84
2022-11-05T08:40:55.666Z,92.69
2022-11-05T08:43:22.383Z,93.05
2022-11-05T08:45:49.355Z,91.85
2022-11-05T08:48:17.570Z,91.85
2022-11-05T08:50:45.932Z,90.11
2022-11-05T08:53:13.690Z,90.17
2022-11-05T08:55:41.890Z,90.42
2022-11-05T08:58:11.258Z,90.60
2022-11-05T09:00:38.852Z,90.25
2022-11-05T09:03:07.168Z,90.46
2022-11-05T09:05:35.796Z,89.26
2022-11-05T09:08:02.378Z,89.72
2022-11-05T09:10:28.951Z,89.46
2022-11-05T09:12:56.922Z,90.03
2022-11-05T09:15:23.808Z,89.50
2022-11-05T09:17:50.645Z,89.86
2022-11-05T09:20:17.225Z,90.51
2022-11-05T09:22:43.861Z,89.05
2022-11-05T09:25:10.691Z,88.14
2022-11-05T09:27:37.291Z,87.69
2022-11-05T09:30:06.299Z,86.79
2022-11-05T09:32:33.638Z,87.94
2022-11-05T09:35:00.194Z,87.91
2022-11-05T09:37:26.946Z,87.63
2022-11-05T09:39:53.783Z,87.59
2022-11-05T09:42:23.845Z,87.94
2022-11-05T09:44:54.663Z,87.92
2022-11-05T09:47:29.270Z,88.35
2022-11-05T09:49:58.798Z,88.77
2022-11-05T09:52:27.814Z,87.76
2022-11-05T09:54:55.584Z,87.82
2022-11-05T09:57:25.552Z,88.01
2022-11-05T09:59:54.332Z,86.98
2022-11-05T10:02:26.648Z,87.77
2022-11-05T10:04:56.788Z,87.76
2022-11-05T10:07:26.252Z,88.02
2022-11-05T10:09:57.518Z,88.62
2022-11-05T10:12:28.537Z,88.50
2022-11-05T10:15:04.711Z,88.83
2022-11-05T10:17:39.064Z,89.63
2022-11-05T10:20:14.205Z,89.44
2022-11-05T10:22:43.961Z,88.65
2022-11-05T10:25:17.729Z,88.57
2022-11-05T10:27:50.261Z,87.32
2022-11-05T10:30:16.865Z,87.88
2022-11-05T10:32:46.659Z,85.23
2022-11-05T10:35:15.769Z,85.42
2022-11-05T10:37:42.357Z,85.22
2022-11-05T10:40:16.774Z,85.24
2022-11-05T10:42:54.219Z,85.20
2022-11-05T10:45:29.945Z,85.43
2022-11-05T10:48:16.579Z,84.94
2022-11-05T10:50:44.249Z,84.26
2022-11-05T10:53:14.641Z,84.30
2022-11-05T10:55:44.107Z,85.05
2022-11-05T10:58:19.923Z,85.43
2022-11-05T11:01:01.685Z,85.52
2022-11-05T11:03:35.414Z,84.98
2022-11-05T11:06:05.110Z,83.46
2022-11-05T11:08:35.002Z,83.25
2022-11-05T11:11:03.814Z,81.83
2022-11-05T11:13:49.339Z,81.69
2022-11-05T11:16:20.085Z,81.36
2022-11-05T11:18:53.207Z,81.98
2022-11-05T11:21:20.938Z,81.10
2022-11-05T11:23:54.778Z,80.96
2022-11-05T11:26:23.346Z,81.14
2022-11-05T11:28:57.572Z,80.78
2022-11-05T11:31:26.504Z,81.71
2022-11-05T11:33:58.304Z,81.72
2022-11-05T11:36:31.582Z,82.50
2022-11-05T11:38:59.597Z,83.21
2022-11-05T11:41:30.798Z,82.73
2022-11-05T11:44:02.899Z,83.15
2022-11-05T11:46:32.739Z,82.80
2022-11-05T11:49:01.071Z,83.16
2022-11-05T11:51:33.399Z,82.92
2022-11-05T11:54:01.690Z,83.17
2022-11-05T11:56:29.103Z,83.12
2022-11-05T11:58:57.675Z,83.08
2022-11-05T12:02:06.435Z,82.94
2022-11-05T12:05:10.107Z,82.77
2022-11-05T12:07:48.609Z,83.17
2022-11-05T12:10:28.287Z,82.33
2022-11-05T12:13:11.466Z,81.75
2022-11-05T12:15:49.046Z,81.67
2022-11-05T12:18:25.123Z,81.86
2022-11-05T12:21:05.641Z,81.33
2022-11-05T12:23:47.310Z,81.57
2022-11-05T12:26:23.345Z,81.55
2022-11-05T12:31:58.732Z,81.43
2022-11-05T12:34:42.324Z,81.93
2022-11-05T12:37:22.836Z,82.82
2022-11-05T12:40:01.255Z,82.53
2022-11-05T12:42:41.979Z,82.51
2022-11-05T12:45:22.436Z,82.65
2022-11-05T12:48:16.072Z,83.02
2022-11-05T12:50:45.181Z,83.70
2022-11-05T12:53:35.992Z,84.04
2022-11-05T12:56:11.209Z,84.60
2022-11-05T12:58:42.082Z,84.97
2022-11-05T13:01:13.333Z,85.29
2022-11-05T13:03:44.301Z,84.92
2022-11-05T13:06:14.863Z,84.99
2022-11-05T13:08:50.896Z,84.85
2022-11-05T13:11:23.107Z,84.89
2022-11-05T13:14:06.380Z,84.35
2022-11-05T13:16:35.912Z,83.95
2022-11-05T13:19:12.356Z,83.91
2022-11-05T13:21:40.485Z,84.12
2022-11-05T13:24:16.493Z,84.25
2022-11-05T13:26:48.245Z,84.62
2022-11-05T13:29:19.279Z,84.62
2022-11-05T13:31:51.857Z,85.01
2022-11-05T13:34:18.412Z,84.61
2022-11-05T13:36:52.407Z,84.00
2022-11-05T13:39:24.711Z,84.41
2022-11-05T13:42:07.818Z,84.69
2022-11-05T13:45:02.497Z,83.11
2022-11-05T13:47:55.814Z,81.94
2022-11-05T13:50:44.751Z,80.14
2022-11-05T13:53:58.069Z,79.85
2022-11-05T13:56:50.197Z,79.25
2022-11-05T13:59:58.483Z,77.07
2022-11-05T14:02:28.615Z,77.36
2022-11-05T14:05:01.009Z,76.50
2022-11-05T14:07:30.180Z,77.69
2022-11-05T14:09:59.510Z,78.16
2022-11-05T14:12:31.087Z,78.78
2022-11-05T14:15:02.751Z,78.37
2022-11-05T14:17:34.175Z,79.13
2022-11-05T14:20:25.695Z,79.31
2022-11-05T14:22:53.152Z,80.12
2022-11-05T14:25:59.225Z,80.16
2022-11-05T14:28:44.335Z,80.60
2022-11-05T14:31:47.357Z,80.78
2022-11-05T14:34:22.595Z,81.55
2022-11-05T14:37:14.000Z,81.59
2022-11-05T14:39:41.431Z,81.73
2022-11-05T14:42:15.659Z,81.89
2022-11-05T14:45:00.637Z,82.46
2022-11-05T14:47:30.940Z,82.72
2022-11-05T14:50:01.787Z,83.36
2022-11-05T14:52:28.839Z,83.93
2022-11-05T14:54:57.838Z,83.68
2022-11-05T14:58:01.475Z,84.37
2022-11-05T15:00:49.356Z,84.11
2022-11-05T15:04:02.913Z,85.91
2022-11-05T15:06:32.947Z,85.84
2022-11-05T15:09:25.390Z,85.65
2022-11-05T15:12:02.585Z,85.54
2022-11-05T15:14:33.667Z,85.55
2022-11-05T15:17:14.023Z,85.54
2022-11-05T15:19:42.132Z,85.21
2022-11-05T15:22:20.034Z,86.43
2022-11-05T15:24:47.576Z,87.58
2022-11-05T15:27:19.696Z,87.90
2022-11-05T15:29:46.387Z,89.16
2022-11-05T15:32:17.879Z,89.33
2022-11-05T15:34:52.171Z,89.77
2022-11-05T15:37:22.069Z,90.29
2022-11-05T15:39:50.386Z,89.86
2022-11-05T15:42:19.120Z,90.05
2022-11-05T15:44:47.368Z,90.74
2022-11-05T15:47:22.543Z,91.05
2022-11-05T15:49:51.904Z,91.56
2022-11-05T15:52:20.827Z,92.12
2022-11-05T15:55:07.461Z,91.70
2022-11-05T15:57:39.252Z,91.40
2022-11-05T16:00:17.550Z,91.12
2022-11-05T16:02:51.800Z,92.40
2022-11-05T16:05:18.605Z,92.88
2022-11-05T16:07:46.839Z,93.46
2022-11-05T16:10:19.219Z,94.07
2022-11-05T16:12:45.866Z,94.19
2022-11-05T16:15:22.840Z,94.09
2022-11-05T16:17:54.475Z,93.35
2022-11-05T16:20:25.056Z,93.77
2022-11-05T16:22:53.800Z,93.42
2022-11-05T16:25:23.669Z,93.14
2022-11-05T16:27:50.269Z,93.91
2022-11-05T16:30:18.386Z,94.48
2022-11-05T16:32:45.584Z,95.20
2022-11-05T16:35:19.742Z,95.39
2022-11-05T16:37:51.833Z,95.61
2022-11-05T16:40:21.511Z,95.21
2022-11-05T16:42:48.840Z,95.04
2022-11-05T16:45:17.907Z,94.52
2022-11-05T16:47:45.436Z,94.57
2022-11-05T16:50:23.399Z,94.77
2022-11-05T16:52:50.731Z,94.55
2022-11-05T16:55:18.533Z,93.91
2022-11-05T16:57:48.737Z,94.43
2022-11-05T17:00:18.005Z,94.83
2022-11-05T17:02:45.175Z,94.60
2022-11-05T17:05:19.663Z,94.77
2022-11-05T17:07:46.934Z,94.45
2022-11-05T17:10:13.585Z,94.49
2022-11-05T17:12:41.012Z,94.35
2022-11-05T17:15:18.361Z,94.22
2022-11-05T17:17:45.697Z,94.34
2022-11-05T17:20:20.537Z,94.33
2022-11-05T17:22:48.507Z,94.39
2022-11-05T17:25:15.134Z,94.89
2022-11-05T17:27:41.665Z,94.94
2022-11-05T17:30:10.252Z,95.02
2022-11-05T17:32:36.874Z,94.48
2022-11-05T17:35:03.997Z,94.84
2022-11-05T17:37:30.620Z,94.77
2022-11-05T17:39:58.665Z,94.56
2022-11-05T17:42:25.222Z,94.79
2022-11-05T17:44:51.762Z,94.64
2022-11-05T17:47:18.292Z,94.76
2022-11-05T17:49:44.839Z,95.21
2022-11-05T17:52:11.452Z,95.63
2022-11-05T17:54:38.012Z,95.90
2022-11-05T17:57:05.907Z,95.63
2022-11-05T17:59:32.501Z,95.11
2022-11-05T18:01:59.108Z,95.31
2022-11-05T18:04:25.763Z,94.99
2022-11-05T18:06:52.331Z,95.08
2022-11-05T18:09:18.939Z,95.03
2022-11-05T18:11:45.742Z,94.93
2022-11-05T18:14:13.633Z,94.96
2022-11-05T18:16:40.199Z,94.85
2022-11-05T18:19:06.763Z,94.81
2022-11-05T18:21:33.331Z,94.68
2022-11-05T18:24:03.152Z,94.93
2022-11-05T18:26:29.687Z,94.57
2022-11-05T18:28:56.228Z,95.04
2022-11-05T18:31:24.103Z,94.87
2022-11-05T18:33:51.028Z,95.40
2022-11-05T18:36:17.958Z,95.62
2022-11-05T18:38:44.519Z,95.97
2022-11-05T18:41:11.077Z,95.68
2022-11-05T18:43:37.616Z,95.81
2022-11-05T18:46:04.232Z,95.79
2022-11-05T18:48:32.197Z,95.63
2022-11-05T18:51:01.833Z,95.26
2022-11-05T18:53:28.819Z,95.47
2022-11-05T18:55:55.357Z,95.75
2022-11-05T18:58:21.866Z,95.87
2022-11-05T19:00:48.402Z,95.80
2022-11-05T19:03:14.914Z,95.53
2022-11-05T19:05:42.818Z,95.51
2022-11-05T19:08:09.601Z,95.36
2022-11-05T19:10:39.564Z,95.57
2022-11-05T19:13:06.119Z,95.88
2022-11-05T19:15:32.711Z,96.33
2022-11-05T19:17:59.291Z,96.26
2022-11-05T19:20:26.007Z,96.16
2022-11-05T19:22:53.895Z,95.77
2022-11-05T19:25:20.512Z,95.67
2022-11-05T19:27:47.337Z,95.65
2022-11-05T19:30:13.998Z,95.56
2022-11-05T19:32:40.559Z,95.32
2022-11-05T19:35:07.798Z,95.35
2022-11-05T19:37:34.411Z,95.42
2022-11-05T19:40:02.393Z,95.42
2022-11-05T19:42:28.986Z,95.47
2022-11-05T19:44:55.666Z,95.59
2022-11-05T19:47:22.208Z,95.59
2022-11-05T19:49:48.745Z,95.25
2022-11-05T19:52:15.326Z,95.31
2022-11-05T19:54:42.013Z,95.11
2022-11-05T19:57:09.907Z,95.02
2022-11-05T19:59:36.431Z,94.79
2022-11-05T20:02:03.198Z,94.87
2022-11-05T20:04:30.058Z,94.40
2022-11-05T20:06:56.683Z,94.62
2022-11-05T20:09:23.596Z,94.54
2022-11-05T20:11:51.025Z,94.27
2022-11-05T20:14:18.905Z,94.00
2022-11-05T20:16:46.356Z,94.22
2022-11-05T20:19:15.559Z,94.20
2022-11-05T20:21:42.606Z,94.32
2022-11-05T20:24:11.222Z,94.20
2022-11-05T20:26:37.873Z,94.04
2022-11-05T20:29:04.463Z,94.33
2022-11-05T20:31:32.689Z,94.15
2022-11-05T20:33:59.527Z,93.81
2022-11-05T20:36:26.641Z,93.91
2022-11-05T20:38:55.670Z,94.12
2022-11-05T20:41:22.530Z,93.81
2022-11-05T20:43:49.760Z,93.81
2022-11-05T20:46:19.091Z,93.53
2022-11-05T20:48:47.140Z,93.46
2022-11-05T20:51:19.388Z,92.92
2022-11-05T20:53:46.663Z,93.42
2022-11-05T20:56:16.969Z,92.61
2022-11-05T20:58:43.955Z,92.52
2022-11-05T21:01:12.201Z,92.46
2022-11-05T21:03:39.080Z,91.99
2022-11-05T21:06:07.361Z,92.82
2022-11-05T21:08:34.298Z,92.98
2022-11-05T21:11:01.127Z,92.30
2022-11-05T21:13:27.786Z,92.38
2022-11-05T21:15:56.483Z,92.55
2022-11-05T21:18:25.102Z,92.83
2022-11-05T21:20:52.363Z,92.75
2022-11-05T21:23:20.301Z,92.80
2022-11-05T21:25:47.370Z,93.10
2022-11-05T21:28:15.659Z,93.26
2022-11-05T21:30:44.257Z,92.68
2022-11-05T21:33:11.574Z,93.18
2022-11-05T21:35:39.390Z,93.61
2022-11-05T21:38:06.010Z,93.55
2022-11-05T21:40:33.966Z,93.64
2022-11-05T21:43:00.506Z,94.00
2022-11-05T21:45:27.192Z,94.17
2022-11-05T21:47:53.797Z,94.13
2022-11-05T21:50:22.053Z,94.20
2022-11-05T21:52:48.731Z,93.99
2022-11-05T21:55:15.319Z,93.78
2022-11-05T21:57:43.248Z,94.03
2022-11-05T22:00:11.279Z,94.04
2022-11-05T22:02:38.014Z,94.22
2022-11-05T22:05:06.194Z,94.12
2022-11-05T22:07:34.649Z,94.38
2022-11-05T22:10:02.165Z,94.07
2022-11-05T22:12:29.120Z,93.86
2022-11-05T22:14:57.112Z,94.12
2022-11-05T22:17:24.250Z,94.29
2022-11-05T22:19:51.135Z,94.32
2022-11-05T22:22:17.710Z,94.12
2022-11-05T22:24:44.660Z,93.80
2022-11-05T22:27:13.515Z,94.53
2022-11-05T22:29:40.253Z,95.22
2022-11-05T22:32:10.273Z,95.67
2022-11-05T22:34:36.861Z,95.72
2022-11-05T22:37:03.617Z,95.64
2022-11-05T22:39:30.212Z,95.59
2022-11-05T22:41:57.581Z,95.26
2022-11-05T22:44:25.676Z,95.44
2022-11-05T22:46:52.839Z,95.44
2022-11-05T22:49:21.058Z,95.79
2022-11-05T22:51:47.735Z,96.25
2022-11-05T22:54:14.308Z,96.49
2022-11-05T22:56:42.665Z,96.63
2022-11-05T22:59:12.583Z,96.38
2022-11-05T23:01:39.436Z,96.07
2022-11-05T23:04:06.074Z,96.06
2022-11-05T23:06:34.285Z,95.93
2022-11-05T23:09:01.796Z,96.02
2022-11-05T23:11:28.368Z,96.07
2022-11-05T23:13:55.966Z,95.99
2022-11-05T23:16:22.537Z,96.28
2022-11-05T23:18:49.088Z,96.29
2022-11-05T23:21:19.224Z,96.25
2022-11-05T23:23:50.676Z,96.45
2022-11-05T23:26:17.244Z,96.33
2022-11-05T23:28:44.215Z,96.58
2022-11-05T23:31:10.759Z,97.13
2022-11-05T23:33:37.353Z,97.19
2022-11-05T23:36:04.198Z,97.13
2022-11-05T23:38:30.736Z,97.15
2022-11-05T23:41:01.197Z,96.98
2022-11-05T23:43:27.793Z,96.80
2022-11-05T23:45:54.433Z,96.23
2022-11-05T23:48:25.969Z,96.53
2022-11-05T23:50:58.472Z,96.75
2022-11-05T23:53:25.948Z,96.51
2022-11-05T23:55:52.783Z,96.51
2022-11-05T23:58:20.780Z,96.40
